Time;durP1;ratioP1;P1;durP2;ratioP2;P2;SDS_P1;SDS_P2;PMS_P1;PMS_P2;Temp;Humidity;BMP_temperature;BMP_pressure;BME280_temperature;BME280_humidity;BME280_pressure;Samples;Min_cycle;Max_cycle;Signal;HPM_P1;HPM_P2
2023/05/14 00:01:28;;;;;;;;;;;20.40;37.60;;;;;;5089347;28;19920;-54
2023/05/14 00:03:55;;;;;;;;;;;20.40;37.70;;;;;;5074357;28;20316;-57
2023/05/14 00:06:22;;;;;;;;;;;20.40;37.70;;;;;;5091724;28;20561;-58
2023/05/14 00:08:52;;;;;;;;;;;20.40;37.70;;;;;;5089930;28;19957;-57
2023/05/14 00:11:19;;;;;;;;;;;20.40;37.70;;;;;;5089003;28;20312;-58
2023/05/14 00:13:48;;;;;;;;;;;20.40;37.80;;;;;;5073852;28;19971;-57
2023/05/14 00:16:14;;;;;;;;;;;20.40;37.80;;;;;;5092338;28;19920;-58
2023/05/14 00:18:41;;;;;;;;;;;20.40;37.80;;;;;;5090729;28;19924;-58
2023/05/14 00:21:08;;;;;;;;;;;20.40;37.80;;;;;;5072414;28;19973;-58
2023/05/14 00:23:38;;;;;;;;;;;20.40;37.80;;;;;;5091173;28;19920;-57
2023/05/14 00:26:04;;;;;;;;;;;20.40;37.90;;;;;;5090425;28;19997;-58
2023/05/14 00:28:34;;;;;;;;;;;20.40;37.90;;;;;;5073574;28;20027;-57
2023/05/14 00:31:02;;;;;;;;;;;20.40;37.90;;;;;;5073605;28;19927;-57
2023/05/14 00:33:29;;;;;;;;;;;20.40;37.90;;;;;;5066079;28;19993;-57
2023/05/14 00:35:56;;;;;;;;;;;20.40;37.90;;;;;;5073678;28;19970;-57
2023/05/14 00:38:26;;;;;;;;;;;20.40;37.90;;;;;;5072568;28;19920;-57
2023/05/14 00:40:53;;;;;;;;;;;20.40;38.00;;;;;;5073397;28;19924;-57
2023/05/14 00:43:19;;;;;;;;;;;20.40;37.90;;;;;;5073549;28;19920;-58
2023/05/14 00:45:46;;;;;;;;;;;20.40;37.90;;;;;;5091445;28;19924;-57
2023/05/14 00:48:14;;;;;;;;;;;20.40;38.00;;;;;;5092611;28;20356;-58
2023/05/14 00:50:41;;;;;;;;;;;20.40;37.90;;;;;;5069294;28;19925;-58
2023/05/14 00:53:09;;;;;;;;;;;20.40;38.00;;;;;;5089460;28;19963;-57
2023/05/14 00:55:36;;;;;;;;;;;20.40;38.00;;;;;;5071570;28;19920;-57
2023/05/14 00:58:04;;;;;;;;;;;20.40;38.00;;;;;;5073137;28;20350;-57
2023/05/14 01:00:31;;;;;;;;;;;20.40;38.10;;;;;;5072915;28;19923;-57
2023/05/14 01:03:00;;;;;;;;;;;20.30;38.00;;;;;;5069501;28;19921;-57
2023/05/14 01:05:28;;;;;;;;;;;20.30;38.00;;;;;;5088626;28;19924;-56
2023/05/14 01:07:57;;;;;;;;;;;20.30;38.00;;;;;;5090247;28;19927;-57
2023/05/14 01:10:24;;;;;;;;;;;20.30;38.10;;;;;;5090733;28;19936;-57
2023/05/14 01:12:53;;;;;;;;;;;20.30;38.10;;;;;;5072061;28;19928;-57
2023/05/14 01:15:21;;;;;;;;;;;20.30;38.10;;;;;;5073530;28;19920;-57
2023/05/14 01:17:48;;;;;;;;;;;20.30;38.10;;;;;;5091307;28;19985;-57
2023/05/14 01:20:15;;;;;;;;;;;20.30;38.20;;;;;;5071469;28;19973;-55
2023/05/14 01:22:43;;;;;;;;;;;20.30;38.20;;;;;;5086745;28;20362;-57
2023/05/14 01:25:13;;;;;;;;;;;20.30;38.20;;;;;;5072180;28;19969;-57
2023/05/14 01:27:41;;;;;;;;;;;20.30;38.20;;;;;;5071960;28;19927;-57
2023/05/14 01:30:10;;;;;;;;;;;20.30;38.30;;;;;;5089309;28;19965;-56
2023/05/14 01:32:36;;;;;;;;;;;20.30;38.30;;;;;;5070813;28;19974;-56
2023/05/14 01:35:03;;;;;;;;;;;20.20;38.20;;;;;;5091665;28;19920;-57
2023/05/14 01:37:30;;;;;;;;;;;20.30;38.30;;;;;;5069026;28;19925;-57
2023/05/14 01:39:58;;;;;;;;;;;20.30;38.30;;;;;;5071125;28;19973;-57
2023/05/14 01:42:25;;;;;;;;;;;20.20;38.20;;;;;;5089646;28;20001;-57
2023/05/14 01:44:52;;;;;;;;;;;20.20;38.30;;;;;;5072066;28;19920;-57
2023/05/14 01:47:19;;;;;;;;;;;20.20;38.30;;;;;;5068858;28;19969;-57
2023/05/14 01:49:45;;;;;;;;;;;20.20;38.30;;;;;;5070640;28;19939;-57
2023/05/14 01:52:12;;;;;;;;;;;20.20;38.30;;;;;;5089720;28;20318;-57
2023/05/14 01:54:39;;;;;;;;;;;20.20;38.30;;;;;;5071012;28;19927;-56
2023/05/14 01:57:07;;;;;;;;;;;20.20;38.30;;;;;;5068994;28;20023;-56
2023/05/14 01:59:34;;;;;;;;;;;20.20;38.30;;;;;;5087522;28;19920;-57
2023/05/14 02:02:01;;;;;;;;;;;20.20;38.30;;;;;;5072408;28;19920;-57
2023/05/14 02:04:28;;;;;;;;;;;20.20;38.30;;;;;;5071847;28;19920;-56
2023/05/14 02:06:54;;;;;;;;;;;20.20;38.30;;;;;;5089118;28;19969;-57
2023/05/14 02:09:21;;;;;;;;;;;20.20;38.30;;;;;;5070684;28;20055;-57
2023/05/14 02:11:48;;;;;;;;;;;20.20;38.30;;;;;;5068727;28;20041;-56
2023/05/14 02:14:16;;;;;;;;;;;20.20;38.30;;;;;;5068979;28;19942;-57
2023/05/14 02:16:43;;;;;;;;;;;20.20;38.40;;;;;;5070583;28;19920;-57
2023/05/14 02:19:09;;;;;;;;;;;20.20;38.40;;;;;;5071537;28;19967;-55
2023/05/14 02:21:36;;;;;;;;;;;20.20;38.40;;;;;;5071984;28;19923;-56
2023/05/14 02:24:05;;;;;;;;;;;20.20;38.40;;;;;;5072979;28;19986;-57
2023/05/14 02:26:32;;;;;;;;;;;20.20;38.40;;;;;;5093706;28;19924;-57
2023/05/14 02:28:58;;;;;;;;;;;20.20;38.40;;;;;;5072018;28;19992;-58
2023/05/14 02:31:27;;;;;;;;;;;20.20;38.40;;;;;;5073318;28;19927;-58
2023/05/14 02:33:53;;;;;;;;;;;20.20;38.40;;;;;;5071166;28;19974;-58
2023/05/14 02:36:20;;;;;;;;;;;20.20;38.50;;;;;;5088646;28;20107;-58
2023/05/14 02:38:47;;;;;;;;;;;20.20;38.50;;;;;;5071647;28;20380;-58
2023/05/14 02:41:14;;;;;;;;;;;20.20;38.50;;;;;;5071960;28;19974;-57
2023/05/14 02:43:41;;;;;;;;;;;20.20;38.50;;;;;;5071603;28;19927;-57
2023/05/14 02:46:07;;;;;;;;;;;20.20;38.50;;;;;;5069824;28;19927;-56
2023/05/14 02:48:36;;;;;;;;;;;20.20;38.50;;;;;;5090904;28;19920;-57
2023/05/14 02:51:02;;;;;;;;;;;20.10;38.40;;;;;;5092999;28;19965;-58
2023/05/14 02:53:29;;;;;;;;;;;20.20;38.50;;;;;;5071934;28;19971;-57
2023/05/14 02:55:56;;;;;;;;;;;20.20;39.10;;;;;;5089657;28;19927;-57
2023/05/14 02:58:22;;;;;;;;;;;20.20;38.50;;;;;;5087270;28;20435;-57
2023/05/14 03:00:49;;;;;;;;;;;20.20;38.50;;;;;;5072106;28;19958;-57
2023/05/14 03:03:16;;;;;;;;;;;20.20;38.50;;;;;;5069765;28;19920;-56
2023/05/14 03:05:44;;;;;;;;;;;20.10;38.40;;;;;;5071532;28;19927;-57
2023/05/14 03:08:11;;;;;;;;;;;20.20;38.60;;;;;;5072491;28;19920;-57
2023/05/14 03:10:38;;;;;;;;;;;20.20;38.50;;;;;;5070521;28;19928;-57
2023/05/14 03:13:04;;;;;;;;;;;20.20;38.60;;;;;;5070016;28;19920;-57
2023/05/14 03:15:31;;;;;;;;;;;20.20;38.60;;;;;;5074909;28;20374;-57
2023/05/14 03:17:58;;;;;;;;;;;20.20;38.60;;;;;;5077505;28;20392;-57
2023/05/14 03:20:25;;;;;;;;;;;20.20;38.60;;;;;;5071962;28;19924;-57
2023/05/14 03:22:53;;;;;;;;;;;20.20;38.60;;;;;;5073409;28;19920;-57
2023/05/14 03:25:20;;;;;;;;;;;20.20;38.60;;;;;;5075247;28;19924;-57
2023/05/14 03:27:46;;;;;;;;;;;20.20;38.60;;;;;;5093770;28;19942;-58
2023/05/14 03:30:13;;;;;;;;;;;20.20;38.60;;;;;;5092191;28;19969;-58
2023/05/14 03:32:41;;;;;;;;;;;20.10;38.50;;;;;;5092632;28;19924;-58
2023/05/14 03:35:08;;;;;;;;;;;20.20;38.60;;;;;;5089929;28;19923;-57
2023/05/14 03:37:35;;;;;;;;;;;20.10;38.50;;;;;;5074704;28;19932;-57
2023/05/14 03:40:03;;;;;;;;;;;20.10;38.50;;;;;;5075287;28;19936;-58
2023/05/14 03:42:30;;;;;;;;;;;20.10;38.50;;;;;;5092503;28;19967;-57
2023/05/14 03:44:57;;;;;;;;;;;20.10;38.50;;;;;;5074508;28;20423;-57
2023/05/14 03:47:23;;;;;;;;;;;20.10;38.50;;;;;;5073799;28;19920;-58
2023/05/14 03:49:50;;;;;;;;;;;20.10;38.50;;;;;;5074547;28;19924;-58
2023/05/14 03:52:17;;;;;;;;;;;20.10;38.50;;;;;;5091837;28;20026;-58
2023/05/14 03:54:43;;;;;;;;;;;20.10;38.50;;;;;;5073860;28;19932;-57
2023/05/14 03:57:12;;;;;;;;;;;20.10;38.50;;;;;;5077320;28;19931;-57
2023/05/14 03:59:38;;;;;;;;;;;20.10;38.60;;;;;;5076589;28;19920;-57
2023/05/14 04:02:05;;;;;;;;;;;20.10;38.60;;;;;;5073669;28;19920;-57
2023/05/14 04:04:32;;;;;;;;;;;20.10;38.60;;;;;;5074346;28;20309;-58
2023/05/14 04:06:59;;;;;;;;;;;20.10;38.60;;;;;;5073887;28;19966;-58
2023/05/14 04:09:26;;;;;;;;;;;20.10;38.60;;;;;;5069849;28;19924;-57
2023/05/14 04:11:53;;;;;;;;;;;20.10;38.60;;;;;;5091609;28;19927;-58
2023/05/14 04:14:21;;;;;;;;;;;20.10;39.20;;;;;;5089688;28;19920;-57
2023/05/14 04:16:47;;;;;;;;;;;20.10;38.60;;;;;;5073303;28;20041;-57
2023/05/14 04:19:14;;;;;;;;;;;20.10;38.70;;;;;;5092796;28;19960;-58
2023/05/14 04:21:41;;;;;;;;;;;20.10;38.70;;;;;;5092291;28;19923;-58
2023/05/14 04:24:08;;;;;;;;;;;20.10;38.70;;;;;;5074189;28;19970;-58
2023/05/14 04:26:35;;;;;;;;;;;20.10;38.70;;;;;;5073063;28;19920;-57
2023/05/14 04:29:02;;;;;;;;;;;20.10;38.80;;;;;;5073040;28;19920;-57
2023/05/14 04:31:30;;;;;;;;;;;20.10;38.80;;;;;;5090429;28;19973;-57
2023/05/14 04:33:57;;;;;;;;;;;20.10;38.80;;;;;;5072954;28;20259;-57
2023/05/14 04:36:23;;;;;;;;;;;20.10;38.80;;;;;;5073311;28;20025;-57
2023/05/14 04:38:50;;;;;;;;;;;20.10;38.90;;;;;;5089933;28;19936;-58
2023/05/14 04:41:17;;;;;;;;;;;20.10;38.80;;;;;;5072258;28;19974;-58
2023/05/14 04:43:45;;;;;;;;;;;20.10;38.80;;;;;;5073176;28;19920;-58
2023/05/14 04:46:12;;;;;;;;;;;20.10;38.90;;;;;;5073931;28;19966;-58
2023/05/14 04:48:40;;;;;;;;;;;20.10;38.90;;;;;;5074422;28;19974;-56
2023/05/14 04:51:07;;;;;;;;;;;20.10;38.90;;;;;;5090801;28;19924;-57
2023/05/14 04:53:34;;;;;;;;;;;20.10;38.90;;;;;;5090955;28;19920;-57
2023/05/14 04:56:01;;;;;;;;;;;20.10;38.90;;;;;;5073417;28;20024;-57
2023/05/14 04:58:30;;;;;;;;;;;20.10;38.90;;;;;;5091436;28;20433;-57
2023/05/14 05:00:56;;;;;;;;;;;20.10;38.90;;;;;;5085932;28;19965;-57
2023/05/14 05:03:23;;;;;;;;;;;20.10;38.90;;;;;;5090785;28;19920;-58
2023/05/14 05:05:51;;;;;;;;;;;20.10;38.90;;;;;;5090852;28;19966;-57
2023/05/14 05:08:18;;;;;;;;;;;20.10;38.90;;;;;;5092191;28;19974;-58
2023/05/14 05:10:45;;;;;;;;;;;20.10;38.90;;;;;;5076139;28;19949;-57
2023/05/14 05:13:12;;;;;;;;;;;20.10;39.00;;;;;;5072098;28;19924;-57
2023/05/14 05:15:38;;;;;;;;;;;20.10;38.90;;;;;;5073746;28;19927;-55
2023/05/14 05:18:05;;;;;;;;;;;20.10;38.90;;;;;;5093276;28;19974;-57
2023/05/14 05:20:32;;;;;;;;;;;20.10;38.90;;;;;;5073775;28;19926;-58
2023/05/14 05:23:00;;;;;;;;;;;20.10;38.90;;;;;;5090518;28;20427;-57
2023/05/14 05:25:27;;;;;;;;;;;20.10;39.60;;;;;;5072905;28;19965;-57
2023/05/14 05:27:54;;;;;;;;;;;20.10;38.90;;;;;;5092058;28;19955;-57
2023/05/14 05:30:20;;;;;;;;;;;20.10;39.00;;;;;;5071761;28;19920;-57
2023/05/14 05:32:47;;;;;;;;;;;20.10;38.90;;;;;;5091447;28;20012;-57
2023/05/14 05:35:16;;;;;;;;;;;20.10;39.00;;;;;;5073261;28;19920;-57
2023/05/14 05:37:44;;;;;;;;;;;20.10;39.00;;;;;;5072923;28;19939;-57
2023/05/14 05:40:12;;;;;;;;;;;20.10;39.00;;;;;;5091180;28;19920;-57
2023/05/14 05:42:39;;;;;;;;;;;20.10;39.00;;;;;;5072365;28;20022;-57
2023/05/14 05:45:07;;;;;;;;;;;20.10;39.00;;;;;;5071921;28;20318;-57
2023/05/14 05:47:33;;;;;;;;;;;20.10;39.00;;;;;;5072457;28;19931;-57
2023/05/14 05:50:00;;;;;;;;;;;20.10;39.10;;;;;;5070596;28;19959;-57
2023/05/14 05:52:27;;;;;;;;;;;20.10;39.10;;;;;;5074390;28;20012;-57
2023/05/14 05:54:54;;;;;;;;;;;20.10;39.20;;;;;;5056218;28;19920;-58
2023/05/14 05:57:22;;;;;;;;;;;20.10;39.30;;;;;;5085729;28;19920;-56
2023/05/14 05:59:49;;;;;;;;;;;20.10;39.30;;;;;;5074388;28;19920;-57
2023/05/14 06:02:15;;;;;;;;;;;20.10;39.40;;;;;;5071565;28;19920;-57
2023/05/14 06:04:42;;;;;;;;;;;20.10;39.40;;;;;;5089542;28;19953;-57
2023/05/14 06:07:09;;;;;;;;;;;20.10;39.40;;;;;;5072518;28;19924;-58
2023/05/14 06:09:36;;;;;;;;;;;20.10;39.40;;;;;;5071279;28;19920;-57
2023/05/14 06:12:02;;;;;;;;;;;20.10;39.40;;;;;;5073290;28;19931;-57
2023/05/14 06:14:31;;;;;;;;;;;20.10;39.50;;;;;;5090532;28;19924;-58
2023/05/14 06:16:58;;;;;;;;;;;20.10;39.60;;;;;;5072190;28;19920;-58
2023/05/14 06:19:25;;;;;;;;;;;20.10;39.60;;;;;;5070697;28;19920;-57
2023/05/14 06:21:51;;;;;;;;;;;20.10;39.50;;;;;;5071874;28;19924;-57
2023/05/14 06:24:18;;;;;;;;;;;20.10;39.50;;;;;;5090080;28;20007;-57
2023/05/14 06:26:45;;;;;;;;;;;20.10;39.50;;;;;;5072669;28;19996;-57
2023/05/14 06:29:12;;;;;;;;;;;20.10;39.50;;;;;;5090041;28;19920;-58
2023/05/14 06:31:40;;;;;;;;;;;20.10;39.50;;;;;;5088538;28;20019;-57
2023/05/14 06:34:08;;;;;;;;;;;20.10;39.50;;;;;;5087935;28;19985;-58
2023/05/14 06:36:34;;;;;;;;;;;20.10;39.50;;;;;;5071637;28;20393;-58
2023/05/14 06:39:02;;;;;;;;;;;20.10;39.60;;;;;;5088505;28;19974;-57
2023/05/14 06:41:29;;;;;;;;;;;20.10;39.70;;;;;;5071535;28;19934;-57
2023/05/14 06:43:56;;;;;;;;;;;20.10;39.70;;;;;;5071509;28;19943;-57
2023/05/14 06:46:23;;;;;;;;;;;20.10;39.70;;;;;;5071339;28;20389;-56
2023/05/14 06:48:51;;;;;;;;;;;20.10;39.70;;;;;;5072474;28;20010;-58
2023/05/14 06:51:18;;;;;;;;;;;20.10;39.70;;;;;;5075518;28;19970;-58
2023/05/14 06:53:45;;;;;;;;;;;20.10;39.70;;;;;;5074431;28;19952;-57
2023/05/14 06:56:13;;;;;;;;;;;20.20;39.80;;;;;;5075782;28;20269;-57
2023/05/14 06:58:40;;;;;;;;;;;20.10;39.70;;;;;;5072341;28;19923;-58
2023/05/14 07:01:06;;;;;;;;;;;20.10;39.70;;;;;;5075391;28;19927;-58
2023/05/14 07:03:33;;;;;;;;;;;20.20;39.80;;;;;;5076340;28;19973;-58
2023/05/14 07:06:01;;;;;;;;;;;20.20;39.70;;;;;;5075196;28;19953;-58
2023/05/14 07:08:28;;;;;;;;;;;20.20;39.70;;;;;;5074857;28;20265;-57
2023/05/14 07:10:56;;;;;;;;;;;20.10;39.70;;;;;;5076107;28;20273;-58
2023/05/14 07:13:25;;;;;;;;;;;20.20;39.90;;;;;;5076040;28;19931;-58
2023/05/14 07:15:54;;;;;;;;;;;20.20;40.60;;;;;;5091480;28;19962;-58
2023/05/14 07:18:21;;;;;;;;;;;20.20;40.00;;;;;;5092637;28;19965;-57
2023/05/14 07:20:47;;;;;;;;;;;20.20;40.10;;;;;;5090086;28;20331;-57
2023/05/14 07:23:16;;;;;;;;;;;20.20;40.00;;;;;;5087630;28;20450;-57
2023/05/14 07:25:42;;;;;;;;;;;20.20;40.00;;;;;;5073910;28;19959;-58
2023/05/14 07:28:10;;;;;;;;;;;20.20;40.00;;;;;;5075416;28;20315;-56
2023/05/14 07:30:36;;;;;;;;;;;20.20;40.00;;;;;;5074594;28;19927;-57
2023/05/14 07:33:03;;;;;;;;;;;20.20;40.10;;;;;;5074798;28;19967;-58
2023/05/14 07:35:30;;;;;;;;;;;20.20;40.20;;;;;;5076043;28;19920;-58
2023/05/14 07:37:57;;;;;;;;;;;20.20;40.20;;;;;;5081526;28;19919;-58
2023/05/14 07:40:25;;;;;;;;;;;20.20;40.10;;;;;;5092743;28;19924;-57
2023/05/14 07:42:51;;;;;;;;;;;20.20;40.10;;;;;;5078488;28;20357;-57
2023/05/14 07:45:18;;;;;;;;;;;20.20;40.10;;;;;;5086108;28;19928;-57
2023/05/14 07:47:45;;;;;;;;;;;20.20;40.00;;;;;;5076085;28;20293;-57
2023/05/14 07:50:12;;;;;;;;;;;20.20;40.10;;;;;;5075195;28;19920;-57
2023/05/14 07:52:39;;;;;;;;;;;20.20;40.10;;;;;;5076885;28;19920;-57
2023/05/14 07:55:06;;;;;;;;;;;20.20;40.20;;;;;;5080096;28;19965;-57
2023/05/14 07:57:34;;;;;;;;;;;20.20;40.20;;;;;;5093514;28;19920;-58
2023/05/14 08:00:01;;;;;;;;;;;20.20;40.30;;;;;;5078387;28;19920;-57
2023/05/14 08:02:28;;;;;;;;;;;20.20;40.30;;;;;;5073996;28;19920;-57
2023/05/14 08:04:55;;;;;;;;;;;20.20;40.30;;;;;;5075260;28;19981;-57
2023/05/14 08:07:21;;;;;;;;;;;20.20;40.30;;;;;;5080638;28;19919;-57
2023/05/14 08:09:48;;;;;;;;;;;20.20;40.30;;;;;;5090958;28;19939;-57
2023/05/14 08:12:15;;;;;;;;;;;20.20;40.40;;;;;;5074040;28;20020;-57
2023/05/14 08:14:43;;;;;;;;;;;20.20;40.50;;;;;;5092310;28;20019;-57
2023/05/14 08:17:10;;;;;;;;;;;20.20;40.50;;;;;;5080042;28;19976;-57
2023/05/14 08:19:37;;;;;;;;;;;20.20;40.50;;;;;;5114011;28;19926;-55
2023/05/14 08:22:04;;;;;;;;;;;20.20;40.50;;;;;;5076571;28;19923;-55
2023/05/14 08:24:31;;;;;;;;;;;20.20;40.50;;;;;;5075588;28;19921;-57
2023/05/14 08:26:58;;;;;;;;;;;20.20;40.50;;;;;;5074695;28;19920;-57
2023/05/14 08:29:25;;;;;;;;;;;20.20;40.50;;;;;;5095302;28;19924;-58
2023/05/14 08:31:54;;;;;;;;;;;20.20;40.40;;;;;;5077961;28;19959;-58
2023/05/14 08:34:21;;;;;;;;;;;20.30;40.40;;;;;;5069624;28;19920;-56
2023/05/14 08:36:48;;;;;;;;;;;20.30;40.50;;;;;;5090194;28;19932;-56
2023/05/14 08:39:15;;;;;;;;;;;20.30;40.40;;;;;;5099593;28;19976;-55
2023/05/14 08:41:41;;;;;;;;;;;20.30;40.50;;;;;;5103415;28;19943;-57
2023/05/14 08:44:10;;;;;;;;;;;20.30;40.50;;;;;;5097615;28;19924;-58
2023/05/14 08:46:38;;;;;;;;;;;20.30;40.40;;;;;;5110448;28;20307;-57
2023/05/14 08:49:11;;;;;;;;;;;20.30;40.40;;;;;;5092696;28;19970;-57
2023/05/14 08:51:37;;;;;;;;;;;20.30;40.40;;;;;;5089720;28;19924;-57
2023/05/14 08:54:04;;;;;;;;;;;20.30;40.40;;;;;;5096326;28;19973;-58
2023/05/14 08:56:34;;;;;;;;;;;20.30;40.30;;;;;;5096340;28;19924;-57
2023/05/14 08:59:01;;;;;;;;;;;20.30;40.30;;;;;;5077692;28;19924;-57
2023/05/14 09:01:28;;;;;;;;;;;20.30;40.30;;;;;;5096452;28;19973;-56
2023/05/14 09:03:55;;;;;;;;;;;20.30;40.30;;;;;;5075078;28;19920;-56
2023/05/14 09:06:23;;;;;;;;;;;20.30;40.30;;;;;;5070842;28;19928;-56
2023/05/14 09:08:50;;;;;;;;;;;20.30;40.20;;;;;;5074749;28;19920;-56
2023/05/14 09:11:17;;;;;;;;;;;20.30;40.20;;;;;;5090628;28;20020;-57
2023/05/14 09:13:43;;;;;;;;;;;20.30;40.20;;;;;;5090310;28;20355;-56
2023/05/14 09:16:10;;;;;;;;;;;20.30;40.20;;;;;;5093653;28;20404;-56
2023/05/14 09:18:37;;;;;;;;;;;20.30;40.20;;;;;;5070985;28;19926;-56
2023/05/14 09:21:04;;;;;;;;;;;20.30;40.20;;;;;;5091145;28;20005;-56
2023/05/14 09:23:33;;;;;;;;;;;20.30;40.20;;;;;;5070892;28;19985;-56
2023/05/14 09:26:03;;;;;;;;;;;20.30;40.10;;;;;;5071876;28;20011;-56
2023/05/14 09:28:30;;;;;;;;;;;20.30;40.00;;;;;;5090740;28;20262;-55
2023/05/14 09:30:57;;;;;;;;;;;20.30;40.00;;;;;;5089305;28;19920;-56
2023/05/14 09:33:27;;;;;;;;;;;20.30;40.00;;;;;;5077064;28;19927;-57
2023/05/14 09:35:58;;;;;;;;;;;20.30;40.00;;;;;;5072012;28;20339;-57
2023/05/14 09:38:28;;;;;;;;;;;20.30;40.00;;;;;;5071857;28;19960;-57
2023/05/14 09:40:56;;;;;;;;;;;20.30;39.90;;;;;;5072154;28;19924;-57
2023/05/14 09:43:22;;;;;;;;;;;20.30;39.80;;;;;;5073466;28;19939;-57
2023/05/14 09:45:49;;;;;;;;;;;20.30;39.80;;;;;;5089754;28;19924;-56
2023/05/14 09:48:16;;;;;;;;;;;20.30;39.80;;;;;;5085055;28;20301;-57
2023/05/14 09:50:43;;;;;;;;;;;20.30;40.30;;;;;;5089987;28;19963;-57
2023/05/14 09:53:09;;;;;;;;;;;20.30;39.70;;;;;;5089236;28;20320;-57
2023/05/14 09:55:36;;;;;;;;;;;20.30;39.60;;;;;;5099254;28;20231;-56
2023/05/14 09:58:05;;;;;;;;;;;20.30;39.70;;;;;;5090461;28;19927;-56
2023/05/14 10:00:32;;;;;;;;;;;20.30;39.60;;;;;;5070867;28;19920;-57
2023/05/14 10:02:58;;;;;;;;;;;20.30;39.60;;;;;;5067360;28;19924;-57
2023/05/14 10:05:26;;;;;;;;;;;20.30;39.50;;;;;;5089109;28;19923;-57
2023/05/14 10:07:53;;;;;;;;;;;20.30;39.60;;;;;;5067761;28;19959;-57
2023/05/14 10:10:20;;;;;;;;;;;20.40;39.60;;;;;;5081851;28;19928;-57
2023/05/14 10:12:48;;;;;;;;;;;20.40;39.60;;;;;;5087931;28;19924;-57
2023/05/14 10:15:25;;;;;;;;;;;20.40;39.60;;;;;;5088473;28;19924;-57
2023/05/14 10:17:54;;;;;;;;;;;20.40;39.40;;;;;;5089249;28;19927;-57
2023/05/14 10:20:21;;;;;;;;;;;20.40;39.30;;;;;;5089801;28;20354;-57
2023/05/14 10:22:47;;;;;;;;;;;20.40;39.30;;;;;;5074918;28;19925;-57
2023/05/14 10:25:14;;;;;;;;;;;20.40;39.30;;;;;;5089926;28;19976;-57
2023/05/14 10:27:41;;;;;;;;;;;20.40;39.30;;;;;;5089425;28;20317;-57
2023/05/14 10:30:10;;;;;;;;;;;20.40;39.00;;;;;;5090297;28;19921;-57
2023/05/14 10:32:40;;;;;;;;;;;20.40;38.70;;;;;;5071547;28;19920;-57
2023/05/14 10:35:16;;;;;;;;;;;20.40;38.70;;;;;;5089836;28;19927;-57
2023/05/14 10:37:44;;;;;;;;;;;20.40;38.20;;;;;;5072352;28;19924;-57
2023/05/14 10:40:10;;;;;;;;;;;20.40;38.20;;;;;;5091235;28;19920;-57
2023/05/14 10:42:39;;;;;;;;;;;20.40;38.20;;;;;;5069065;28;19920;-57
2023/05/14 10:45:07;;;;;;;;;;;20.30;38.00;;;;;;5069738;28;19978;-57
2023/05/14 10:47:34;;;;;;;;;;;20.40;38.00;;;;;;5066305;28;19928;-57
2023/05/14 10:50:03;;;;;;;;;;;20.40;38.10;;;;;;5071680;28;19945;-57
2023/05/14 10:52:30;;;;;;;;;;;20.30;38.10;;;;;;5071564;28;19942;-57
2023/05/14 10:54:57;;;;;;;;;;;20.30;38.00;;;;;;5096261;28;19926;-57
2023/05/14 10:57:26;;;;;;;;;;;20.40;37.90;;;;;;5076851;28;19966;-57
2023/05/14 10:59:53;;;;;;;;;;;20.30;37.80;;;;;;5070199;28;19920;-57
2023/05/14 11:02:21;;;;;;;;;;;20.40;37.80;;;;;;5078316;28;19927;-57
2023/05/14 11:04:58;;;;;;;;;;;20.30;37.70;;;;;;5050899;28;19962;-57
2023/05/14 11:07:27;;;;;;;;;;;20.30;37.90;;;;;;5066168;28;19926;-57
2023/05/14 11:09:54;;;;;;;;;;;20.30;38.00;;;;;;5070309;28;20009;-57
2023/05/14 11:12:21;;;;;;;;;;;20.30;38.00;;;;;;5089316;28;19935;-58
2023/05/14 11:14:47;;;;;;;;;;;20.30;38.00;;;;;;5064505;28;19921;-57
2023/05/14 11:17:14;;;;;;;;;;;20.30;37.90;;;;;;5081379;28;19919;-57
2023/05/14 11:19:43;;;;;;;;;;;20.30;38.00;;;;;;5071551;28;19924;-57
2023/05/14 11:22:12;;;;;;;;;;;20.30;38.00;;;;;;5070250;28;19928;-57
2023/05/14 11:24:40;;;;;;;;;;;20.30;38.10;;;;;;5070796;28;19924;-57
2023/05/14 11:27:07;;;;;;;;;;;20.40;38.30;;;;;;5088825;28;19950;-57
2023/05/14 11:29:34;;;;;;;;;;;20.40;38.30;;;;;;5086480;28;19920;-57
2023/05/14 11:32:00;;;;;;;;;;;20.40;38.30;;;;;;5082508;28;19924;-57
2023/05/14 11:34:28;;;;;;;;;;;20.40;38.30;;;;;;5094299;28;19931;-57
2023/05/14 11:36:54;;;;;;;;;;;20.40;38.30;;;;;;5074143;28;19920;-58
2023/05/14 11:39:21;;;;;;;;;;;20.40;38.20;;;;;;5074717;28;19927;-58
2023/05/14 11:41:49;;;;;;;;;;;20.40;38.20;;;;;;5074199;28;19920;-58
2023/05/14 11:44:16;;;;;;;;;;;20.40;38.30;;;;;;5093148;28;20312;-57
2023/05/14 11:46:53;;;;;;;;;;;20.40;38.30;;;;;;5073972;28;19932;-57
2023/05/14 11:49:20;;;;;;;;;;;20.40;38.30;;;;;;5091051;28;19924;-57
2023/05/14 11:51:47;;;;;;;;;;;20.40;38.00;;;;;;5089894;28;20237;-58
2023/05/14 11:54:14;;;;;;;;;;;20.40;37.50;;;;;;5102231;28;19923;-57
2023/05/14 11:56:41;;;;;;;;;;;20.40;37.50;;;;;;5079109;28;19920;-57
2023/05/14 11:59:10;;;;;;;;;;;20.40;37.40;;;;;;5074456;28;19955;-57
2023/05/14 12:01:36;;;;;;;;;;;20.40;37.50;;;;;;5092038;28;19941;-57
2023/05/14 12:04:03;;;;;;;;;;;20.40;37.40;;;;;;5072671;28;19935;-57
2023/05/14 12:06:30;;;;;;;;;;;20.40;37.50;;;;;;5073194;28;19920;-57
2023/05/14 12:08:57;;;;;;;;;;;20.40;37.40;;;;;;5088711;28;19927;-57
2023/05/14 12:11:24;;;;;;;;;;;20.40;37.20;;;;;;5077198;28;19966;-56
2023/05/14 12:13:50;;;;;;;;;;;20.40;37.00;;;;;;5100921;28;19924;-58
2023/05/14 12:16:20;;;;;;;;;;;20.40;36.80;;;;;;5096080;28;19942;-56
2023/05/14 12:18:47;;;;;;;;;;;20.40;36.70;;;;;;5075424;28;20023;-57
2023/05/14 12:21:14;;;;;;;;;;;20.40;36.60;;;;;;5071349;28;19965;-58
2023/05/14 12:23:41;;;;;;;;;;;20.40;36.50;;;;;;5061897;28;19927;-57
2023/05/14 12:26:08;;;;;;;;;;;20.40;36.40;;;;;;5082441;28;19931;-58
2023/05/14 12:28:35;;;;;;;;;;;20.40;36.40;;;;;;5104607;28;20307;-57
2023/05/14 12:31:02;;;;;;;;;;;20.40;36.50;;;;;;5067686;28;20385;-58
2023/05/14 12:33:30;;;;;;;;;;;20.40;36.50;;;;;;5101608;28;19963;-57
2023/05/14 12:36:00;;;;;;;;;;;20.40;36.40;;;;;;5087924;28;20362;-55
2023/05/14 12:38:27;;;;;;;;;;;20.40;36.40;;;;;;5077408;28;19924;-58
2023/05/14 12:40:54;;;;;;;;;;;20.40;36.40;;;;;;5071264;28;19920;-58
2023/05/14 12:43:21;;;;;;;;;;;20.40;36.30;;;;;;5087431;28;19927;-57
2023/05/14 12:45:47;;;;;;;;;;;20.40;36.00;;;;;;5079995;28;19923;-57
2023/05/14 12:48:14;;;;;;;;;;;20.40;35.90;;;;;;5100091;28;20014;-57
2023/05/14 12:50:43;;;;;;;;;;;20.40;36.00;;;;;;5093045;28;19927;-57
2023/05/14 12:53:09;;;;;;;;;;;20.40;35.70;;;;;;5087846;28;19924;-58
2023/05/14 12:55:36;;;;;;;;;;;20.40;35.90;;;;;;5064188;28;19980;-57
2023/05/14 12:58:03;;;;;;;;;;;20.40;35.80;;;;;;5086070;28;19924;-60
2023/05/14 13:00:30;;;;;;;;;;;20.40;35.70;;;;;;5058513;28;19954;-57
2023/05/14 13:02:57;;;;;;;;;;;20.40;35.70;;;;;;5092119;28;19950;-58
2023/05/14 13:05:23;;;;;;;;;;;20.40;35.80;;;;;;5091590;28;20436;-58
2023/05/14 13:07:52;;;;;;;;;;;20.40;35.80;;;;;;5087187;28;20206;-57
2023/05/14 13:10:19;;;;;;;;;;;20.40;35.90;;;;;;5085922;28;20023;-55
2023/05/14 13:12:46;;;;;;;;;;;20.40;35.90;;;;;;5089092;28;19972;-56
2023/05/14 13:15:13;;;;;;;;;;;20.40;36.70;;;;;;5093464;28;20046;-59
2023/05/14 13:17:40;;;;;;;;;;;20.40;36.20;;;;;;5077013;28;19942;-56
2023/05/14 13:20:08;;;;;;;;;;;20.40;36.10;;;;;;5074627;28;19951;-57
2023/05/14 13:22:34;;;;;;;;;;;20.40;36.30;;;;;;5073616;28;19920;-56
2023/05/14 13:25:03;;;;;;;;;;;20.40;36.30;;;;;;5072433;28;19947;-57
2023/05/14 13:27:30;;;;;;;;;;;20.40;36.30;;;;;;5073758;28;19920;-57
2023/05/14 13:29:57;;;;;;;;;;;20.40;36.20;;;;;;5059937;28;19928;-57
2023/05/14 13:32:25;;;;;;;;;;;20.40;36.30;;;;;;5082346;28;19920;-58
2023/05/14 13:34:52;;;;;;;;;;;20.40;36.10;;;;;;5091873;28;19928;-58
2023/05/14 13:37:18;;;;;;;;;;;20.40;36.70;;;;;;5065129;28;19924;-58
2023/05/14 13:39:45;;;;;;;;;;;20.40;35.90;;;;;;5074872;28;19920;-58
2023/05/14 13:42:13;;;;;;;;;;;20.40;36.00;;;;;;5091540;28;20366;-58
2023/05/14 13:44:40;;;;;;;;;;;20.40;35.90;;;;;;5091678;28;19970;-58
2023/05/14 13:47:07;;;;;;;;;;;20.40;35.90;;;;;;5102853;28;19923;-58
2023/05/14 13:49:34;;;;;;;;;;;20.40;35.80;;;;;;5076405;28;19959;-57
2023/05/14 13:52:01;;;;;;;;;;;20.40;35.70;;;;;;5074264;28;19973;-56
2023/05/14 13:54:27;;;;;;;;;;;20.40;35.90;;;;;;5057132;28;20476;-57
2023/05/14 13:56:54;;;;;;;;;;;20.40;36.10;;;;;;5069134;28;20359;-58
2023/05/14 13:59:26;;;;;;;;;;;20.40;35.90;;;;;;5087604;28;19920;-57
2023/05/14 14:01:53;;;;;;;;;;;20.40;35.90;;;;;;5083108;28;19932;-58
2023/05/14 14:04:21;;;;;;;;;;;20.40;35.80;;;;;;5089451;28;19924;-59
2023/05/14 14:06:50;;;;;;;;;;;20.40;35.80;;;;;;5085764;28;20262;-57
2023/05/14 14:09:17;;;;;;;;;;;20.40;35.90;;;;;;5089844;28;19946;-58
2023/05/14 14:11:44;;;;;;;;;;;20.40;35.90;;;;;;5090309;28;19984;-58
2023/05/14 14:14:11;;;;;;;;;;;20.40;35.80;;;;;;5068951;28;19920;-57
2023/05/14 14:16:39;;;;;;;;;;;20.40;35.60;;;;;;5085277;28;19936;-57